sensor_id;sensor_type;location;lat;lon;timestamp;P1;durP1;ratioP1;P2;durP2;ratioP2
13388;SDS011;6764;53.250;10.410;2023-11-21T00:01:57;5.60;;;3.40;;
13388;SDS011;6764;53.250;10.410;2023-11-21T00:04:23;5.30;;;3.60;;
13388;SDS011;6764;53.250;10.410;2023-11-21T00:06:49;5.80;;;3.57;;
13388;SDS011;6764;53.250;10.410;2023-11-21T00:09:14;6.10;;;3.50;;
13388;SDS011;6764;53.250;10.410;2023-11-21T00:11:40;7.20;;;3.73;;
13388;SDS011;6764;53.250;10.410;2023-11-21T00:14:06;3.50;;;2.83;;
13388;SDS011;6764;53.250;10.410;2023-11-21T00:16:33;4.73;;;3.17;;
13388;SDS011;6764;53.250;10.410;2023-11-21T00:18:59;3.80;;;3.10;;
13388;SDS011;6764;53.250;10.410;2023-11-21T00:21:25;3.27;;;2.90;;
13388;SDS011;6764;53.250;10.410;2023-11-21T00:23:50;3.80;;;3.50;;
13388;SDS011;6764;53.250;10.410;2023-11-21T00:26:16;5.20;;;3.80;;
13388;SDS011;6764;53.250;10.410;2023-11-21T00:28:42;4.07;;;3.47;;
13388;SDS011;6764;53.250;10.410;2023-11-21T00:31:07;4.57;;;4.13;;
13388;SDS011;6764;53.250;10.410;2023-11-21T00:33:33;4.30;;;3.90;;
13388;SDS011;6764;53.250;10.410;2023-11-21T00:35:58;4.60;;;4.20;;
13388;SDS011;6764;53.250;10.410;2023-11-21T00:38:25;6.93;;;5.13;;
13388;SDS011;6764;53.250;10.410;2023-11-21T00:40:52;5.57;;;4.97;;
13388;SDS011;6764;53.250;10.410;2023-11-21T00:43:21;5.33;;;4.83;;
13388;SDS011;6764;53.250;10.410;2023-11-21T00:45:49;8.47;;;5.33;;
13388;SDS011;6764;53.250;10.410;2023-11-21T00:48:15;9.23;;;6.10;;
13388;SDS011;6764;53.250;10.410;2023-11-21T00:50:40;6.40;;;5.60;;
13388;SDS011;6764;53.250;10.410;2023-11-21T00:53:06;6.83;;;5.93;;
13388;SDS011;6764;53.250;10.410;2023-11-21T00:55:32;7.10;;;5.77;;
13388;SDS011;6764;53.250;10.410;2023-11-21T00:57:58;8.30;;;6.17;;
13388;SDS011;6764;53.250;10.410;2023-11-21T01:00:24;7.37;;;6.50;;
13388;SDS011;6764;53.250;10.410;2023-11-21T01:02:50;7.73;;;6.20;;
13388;SDS011;6764;53.250;10.410;2023-11-21T01:05:16;7.27;;;6.43;;
13388;SDS011;6764;53.250;10.410;2023-11-21T01:07:42;7.43;;;6.30;;
13388;SDS011;6764;53.250;10.410;2023-11-21T01:10:08;7.87;;;6.77;;
13388;SDS011;6764;53.250;10.410;2023-11-21T01:12:35;8.47;;;7.30;;
13388;SDS011;6764;53.250;10.410;2023-11-21T01:15:06;9.30;;;6.93;;
13388;SDS011;6764;53.250;10.410;2023-11-21T01:17:32;8.63;;;7.00;;
13388;SDS011;6764;53.250;10.410;2023-11-21T01:19:59;9.13;;;7.20;;
13388;SDS011;6764;53.250;10.410;2023-11-21T01:22:25;11.23;;;7.77;;
13388;SDS011;6764;53.250;10.410;2023-11-21T01:24:54;9.43;;;7.13;;
13388;SDS011;6764;53.250;10.410;2023-11-21T01:27:21;7.47;;;6.63;;
13388;SDS011;6764;53.250;10.410;2023-11-21T01:29:46;8.47;;;7.20;;
13388;SDS011;6764;53.250;10.410;2023-11-21T01:32:12;8.67;;;7.17;;
13388;SDS011;6764;53.250;10.410;2023-11-21T01:34:37;8.43;;;6.73;;
13388;SDS011;6764;53.250;10.410;2023-11-21T01:37:03;10.50;;;7.13;;
13388;SDS011;6764;53.250;10.410;2023-11-21T01:39:30;10.83;;;7.83;;
13388;SDS011;6764;53.250;10.410;2023-11-21T01:41:56;10.67;;;8.23;;
13388;SDS011;6764;53.250;10.410;2023-11-21T01:44:23;11.13;;;9.07;;
13388;SDS011;6764;53.250;10.410;2023-11-21T01:46:49;12.33;;;8.77;;
13388;SDS011;6764;53.250;10.410;2023-11-21T01:49:16;11.93;;;8.93;;
13388;SDS011;6764;53.250;10.410;2023-11-21T01:51:43;12.50;;;9.53;;
13388;SDS011;6764;53.250;10.410;2023-11-21T01:54:13;12.10;;;10.17;;
13388;SDS011;6764;53.250;10.410;2023-11-21T01:56:40;15.03;;;11.30;;
13388;SDS011;6764;53.250;10.410;2023-11-21T01:59:05;17.03;;;11.80;;
13388;SDS011;6764;53.250;10.410;2023-11-21T02:01:32;18.30;;;11.70;;
13388;SDS011;6764;53.250;10.410;2023-11-21T02:03:58;13.27;;;11.37;;
13388;SDS011;6764;53.250;10.410;2023-11-21T02:06:24;13.57;;;10.67;;
13388;SDS011;6764;53.250;10.410;2023-11-21T02:08:50;11.80;;;10.27;;
13388;SDS011;6764;53.250;10.410;2023-11-21T02:11:16;11.97;;;10.13;;
13388;SDS011;6764;53.250;10.410;2023-11-21T02:13:44;12.17;;;9.73;;
13388;SDS011;6764;53.250;10.410;2023-11-21T02:16:10;13.63;;;10.07;;
13388;SDS011;6764;53.250;10.410;2023-11-21T02:18:37;13.10;;;10.07;;
13388;SDS011;6764;53.250;10.410;2023-11-21T02:21:04;12.37;;;9.70;;
13388;SDS011;6764;53.250;10.410;2023-11-21T02:23:30;12.60;;;9.87;;
13388;SDS011;6764;53.250;10.410;2023-11-21T02:25:56;12.97;;;9.90;;
13388;SDS011;6764;53.250;10.410;2023-11-21T02:28:21;12.87;;;9.40;;
13388;SDS011;6764;53.250;10.410;2023-11-21T02:30:51;9.53;;;8.27;;
13388;SDS011;6764;53.250;10.410;2023-11-21T02:33:24;10.73;;;8.70;;
13388;SDS011;6764;53.250;10.410;2023-11-21T02:35:49;10.63;;;8.97;;
13388;SDS011;6764;53.250;10.410;2023-11-21T02:38:19;10.23;;;8.80;;
13388;SDS011;6764;53.250;10.410;2023-11-21T02:40:48;12.33;;;9.17;;
13388;SDS011;6764;53.250;10.410;2023-11-21T02:43:14;11.10;;;8.43;;
13388;SDS011;6764;53.250;10.410;2023-11-21T02:45:39;11.80;;;8.67;;
13388;SDS011;6764;53.250;10.410;2023-11-21T02:48:06;9.73;;;8.50;;
13388;SDS011;6764;53.250;10.410;2023-11-21T02:50:32;11.33;;;9.10;;
13388;SDS011;6764;53.250;10.410;2023-11-21T02:52:58;11.17;;;9.53;;
13388;SDS011;6764;53.250;10.410;2023-11-21T02:55:25;10.07;;;8.73;;
13388;SDS011;6764;53.250;10.410;2023-11-21T02:57:51;11.00;;;8.53;;
13388;SDS011;6764;53.250;10.410;2023-11-21T03:00:17;11.43;;;8.73;;
13388;SDS011;6764;53.250;10.410;2023-11-21T03:02:43;12.70;;;9.23;;
13388;SDS011;6764;53.250;10.410;2023-11-21T03:05:09;10.60;;;8.63;;
13388;SDS011;6764;53.250;10.410;2023-11-21T03:07:36;10.03;;;8.50;;
13388;SDS011;6764;53.250;10.410;2023-11-21T03:10:02;8.97;;;7.80;;
13388;SDS011;6764;53.250;10.410;2023-11-21T03:12:29;9.03;;;7.87;;
13388;SDS011;6764;53.250;10.410;2023-11-21T03:14:55;9.83;;;7.83;;
13388;SDS011;6764;53.250;10.410;2023-11-21T03:17:21;11.07;;;8.23;;
13388;SDS011;6764;53.250;10.410;2023-11-21T03:19:46;14.77;;;9.23;;
13388;SDS011;6764;53.250;10.410;2023-11-21T03:22:12;11.03;;;8.37;;
13388;SDS011;6764;53.250;10.410;2023-11-21T03:24:38;9.23;;;7.97;;
13388;SDS011;6764;53.250;10.410;2023-11-21T03:27:04;9.83;;;8.80;;
13388;SDS011;6764;53.250;10.410;2023-11-21T03:29:30;11.13;;;8.50;;
13388;SDS011;6764;53.250;10.410;2023-11-21T03:31:55;10.87;;;7.97;;
13388;SDS011;6764;53.250;10.410;2023-11-21T03:34:25;11.97;;;8.13;;
13388;SDS011;6764;53.250;10.410;2023-11-21T03:36:52;9.27;;;7.70;;
13388;SDS011;6764;53.250;10.410;2023-11-21T03:39:19;9.50;;;8.30;;
13388;SDS011;6764;53.250;10.410;2023-11-21T03:41:45;9.93;;;7.77;;
13388;SDS011;6764;53.250;10.410;2023-11-21T03:44:11;8.40;;;7.50;;
13388;SDS011;6764;53.250;10.410;2023-11-21T03:46:37;8.13;;;7.30;;
13388;SDS011;6764;53.250;10.410;2023-11-21T03:49:02;9.90;;;7.63;;
13388;SDS011;6764;53.250;10.410;2023-11-21T03:51:28;9.57;;;8.57;;
13388;SDS011;6764;53.250;10.410;2023-11-21T03:53:53;9.00;;;7.90;;
13388;SDS011;6764;53.250;10.410;2023-11-21T03:56:19;8.00;;;7.20;;
13388;SDS011;6764;53.250;10.410;2023-11-21T03:58:48;10.33;;;7.53;;
13388;SDS011;6764;53.250;10.410;2023-11-21T04:01:23;9.83;;;8.07;;
13388;SDS011;6764;53.250;10.410;2023-11-21T04:03:49;8.00;;;7.20;;
13388;SDS011;6764;53.250;10.410;2023-11-21T04:06:16;9.90;;;8.00;;
13388;SDS011;6764;53.250;10.410;2023-11-21T04:08:42;9.80;;;7.77;;
13388;SDS011;6764;53.250;10.410;2023-11-21T04:11:09;10.90;;;7.90;;
13388;SDS011;6764;53.250;10.410;2023-11-21T04:13:37;8.57;;;7.77;;
13388;SDS011;6764;53.250;10.410;2023-11-21T04:16:06;8.87;;;7.80;;
13388;SDS011;6764;53.250;10.410;2023-11-21T04:18:32;9.80;;;7.57;;
13388;SDS011;6764;53.250;10.410;2023-11-21T04:20:59;9.03;;;7.83;;
13388;SDS011;6764;53.250;10.410;2023-11-21T04:23:24;9.43;;;8.00;;
13388;SDS011;6764;53.250;10.410;2023-11-21T04:25:50;10.47;;;8.27;;
13388;SDS011;6764;53.250;10.410;2023-11-21T04:28:15;10.90;;;8.47;;
13388;SDS011;6764;53.250;10.410;2023-11-21T04:30:41;12.10;;;9.10;;
13388;SDS011;6764;53.250;10.410;2023-11-21T04:33:07;14.30;;;9.63;;
13388;SDS011;6764;53.250;10.410;2023-11-21T04:35:32;10.03;;;7.90;;
13388;SDS011;6764;53.250;10.410;2023-11-21T04:37:58;13.40;;;8.53;;
13388;SDS011;6764;53.250;10.410;2023-11-21T04:40:25;10.33;;;7.97;;
13388;SDS011;6764;53.250;10.410;2023-11-21T04:42:52;9.57;;;7.67;;
13388;SDS011;6764;53.250;10.410;2023-11-21T04:45:17;10.40;;;7.83;;
13388;SDS011;6764;53.250;10.410;2023-11-21T04:47:43;8.57;;;7.77;;
13388;SDS011;6764;53.250;10.410;2023-11-21T04:50:08;8.37;;;7.00;;
13388;SDS011;6764;53.250;10.410;2023-11-21T04:52:34;9.30;;;7.93;;
13388;SDS011;6764;53.250;10.410;2023-11-21T04:55:00;8.63;;;7.63;;
13388;SDS011;6764;53.250;10.410;2023-11-21T04:57:27;12.73;;;7.83;;
13388;SDS011;6764;53.250;10.410;2023-11-21T04:59:53;8.07;;;7.23;;
13388;SDS011;6764;53.250;10.410;2023-11-21T05:02:19;8.97;;;8.07;;
13388;SDS011;6764;53.250;10.410;2023-11-21T05:04:46;10.23;;;7.87;;
13388;SDS011;6764;53.250;10.410;2023-11-21T05:07:12;12.00;;;8.30;;
13388;SDS011;6764;53.250;10.410;2023-11-21T05:09:44;10.77;;;7.63;;
13388;SDS011;6764;53.250;10.410;2023-11-21T05:12:11;9.53;;;8.50;;
13388;SDS011;6764;53.250;10.410;2023-11-21T05:14:37;10.83;;;8.90;;
13388;SDS011;6764;53.250;10.410;2023-11-21T05:17:03;9.87;;;7.77;;
13388;SDS011;6764;53.250;10.410;2023-11-21T05:19:29;8.67;;;7.77;;
13388;SDS011;6764;53.250;10.410;2023-11-21T05:21:55;8.70;;;7.80;;
13388;SDS011;6764;53.250;10.410;2023-11-21T05:24:20;10.70;;;7.97;;
13388;SDS011;6764;53.250;10.410;2023-11-21T05:26:46;9.93;;;8.83;;
13388;SDS011;6764;53.250;10.410;2023-11-21T05:29:12;10.83;;;8.57;;
13388;SDS011;6764;53.250;10.410;2023-11-21T05:31:37;10.00;;;8.90;;
13388;SDS011;6764;53.250;10.410;2023-11-21T05:34:03;10.40;;;8.23;;
13388;SDS011;6764;53.250;10.410;2023-11-21T05:36:30;13.63;;;8.83;;
13388;SDS011;6764;53.250;10.410;2023-11-21T05:38:56;11.60;;;8.33;;
13388;SDS011;6764;53.250;10.410;2023-11-21T05:41:21;10.90;;;8.10;;
13388;SDS011;6764;53.250;10.410;2023-11-21T05:43:48;12.07;;;8.00;;
13388;SDS011;6764;53.250;10.410;2023-11-21T05:46:14;9.70;;;8.20;;
13388;SDS011;6764;53.250;10.410;2023-11-21T05:48:39;8.67;;;7.53;;
13388;SDS011;6764;53.250;10.410;2023-11-21T05:51:05;8.87;;;7.60;;
13388;SDS011;6764;53.250;10.410;2023-11-21T05:53:31;8.83;;;7.90;;
13388;SDS011;6764;53.250;10.410;2023-11-21T05:55:57;9.60;;;8.10;;
13388;SDS011;6764;53.250;10.410;2023-11-21T05:58:22;9.33;;;7.77;;
13388;SDS011;6764;53.250;10.410;2023-11-21T06:00:48;9.33;;;7.87;;
13388;SDS011;6764;53.250;10.410;2023-11-21T06:03:14;8.40;;;7.50;;
13388;SDS011;6764;53.250;10.410;2023-11-21T06:05:40;9.47;;;8.53;;
13388;SDS011;6764;53.250;10.410;2023-11-21T06:08:05;10.03;;;8.90;;
13388;SDS011;6764;53.250;10.410;2023-11-21T06:10:32;9.40;;;8.23;;
13388;SDS011;6764;53.250;10.410;2023-11-21T06:12:58;9.40;;;8.00;;
13388;SDS011;6764;53.250;10.410;2023-11-21T06:15:23;8.73;;;7.73;;
13388;SDS011;6764;53.250;10.410;2023-11-21T06:17:49;15.00;;;8.53;;
13388;SDS011;6764;53.250;10.410;2023-11-21T06:20:17;10.30;;;7.97;;
13388;SDS011;6764;53.250;10.410;2023-11-21T06:22:44;9.33;;;7.73;;
13388;SDS011;6764;53.250;10.410;2023-11-21T06:25:11;9.93;;;8.37;;
13388;SDS011;6764;53.250;10.410;2023-11-21T06:27:41;9.13;;;7.87;;
13388;SDS011;6764;53.250;10.410;2023-11-21T06:30:08;10.20;;;9.10;;
13388;SDS011;6764;53.250;10.410;2023-11-21T06:32:35;10.37;;;8.90;;
13388;SDS011;6764;53.250;10.410;2023-11-21T06:35:04;9.53;;;8.37;;
13388;SDS011;6764;53.250;10.410;2023-11-21T06:37:31;9.67;;;8.07;;
13388;SDS011;6764;53.250;10.410;2023-11-21T06:39:58;9.53;;;7.60;;
13388;SDS011;6764;53.250;10.410;2023-11-21T06:42:24;9.67;;;7.77;;
13388;SDS011;6764;53.250;10.410;2023-11-21T06:44:50;10.10;;;7.47;;
13388;SDS011;6764;53.250;10.410;2023-11-21T06:47:22;8.70;;;7.23;;
13388;SDS011;6764;53.250;10.410;2023-11-21T06:49:50;10.23;;;8.13;;
13388;SDS011;6764;53.250;10.410;2023-11-21T06:52:16;9.30;;;7.90;;
13388;SDS011;6764;53.250;10.410;2023-11-21T06:54:42;9.07;;;7.77;;
13388;SDS011;6764;53.250;10.410;2023-11-21T06:57:08;9.83;;;7.23;;
13388;SDS011;6764;53.250;10.410;2023-11-21T06:59:33;8.13;;;7.23;;
13388;SDS011;6764;53.250;10.410;2023-11-21T07:01:59;8.77;;;7.83;;
13388;SDS011;6764;53.250;10.410;2023-11-21T07:04:25;11.43;;;9.97;;
13388;SDS011;6764;53.250;10.410;2023-11-21T07:06:51;9.53;;;8.53;;
13388;SDS011;6764;53.250;10.410;2023-11-21T07:09:17;9.80;;;7.60;;
13388;SDS011;6764;53.250;10.410;2023-11-21T07:11:42;11.47;;;8.13;;
13388;SDS011;6764;53.250;10.410;2023-11-21T07:14:08;10.93;;;7.90;;
13388;SDS011;6764;53.250;10.410;2023-11-21T07:16:37;8.67;;;7.60;;
13388;SDS011;6764;53.250;10.410;2023-11-21T07:19:03;9.60;;;8.57;;
13388;SDS011;6764;53.250;10.410;2023-11-21T07:21:32;9.67;;;8.27;;
13388;SDS011;6764;53.250;10.410;2023-11-21T07:23:59;8.33;;;7.53;;
13388;SDS011;6764;53.250;10.410;2023-11-21T07:26:26;9.17;;;8.17;;
13388;SDS011;6764;53.250;10.410;2023-11-21T07:28:52;9.20;;;8.30;;
13388;SDS011;6764;53.250;10.410;2023-11-21T07:31:18;8.43;;;7.53;;
13388;SDS011;6764;53.250;10.410;2023-11-21T07:33:44;10.37;;;8.30;;
13388;SDS011;6764;53.250;10.410;2023-11-21T07:36:12;8.57;;;7.67;;
13388;SDS011;6764;53.250;10.410;2023-11-21T07:38:38;8.57;;;7.17;;
13388;SDS011;6764;53.250;10.410;2023-11-21T07:41:04;10.80;;;8.87;;
13388;SDS011;6764;53.250;10.410;2023-11-21T07:43:32;11.50;;;8.47;;
13388;SDS011;6764;53.250;10.410;2023-11-21T07:46:02;10.10;;;7.93;;
13388;SDS011;6764;53.250;10.410;2023-11-21T07:48:29;8.80;;;7.90;;
13388;SDS011;6764;53.250;10.410;2023-11-21T07:50:56;9.73;;;8.07;;
13388;SDS011;6764;53.250;10.410;2023-11-21T07:53:23;8.33;;;7.53;;
13388;SDS011;6764;53.250;10.410;2023-11-21T07:55:55;10.60;;;8.80;;
13388;SDS011;6764;53.250;10.410;2023-11-21T07:58:30;12.80;;;8.03;;
13388;SDS011;6764;53.250;10.410;2023-11-21T08:00:58;11.57;;;8.73;;
13388;SDS011;6764;53.250;10.410;2023-11-21T08:03:24;11.07;;;8.47;;
13388;SDS011;6764;53.250;10.410;2023-11-21T08:05:51;9.03;;;8.13;;
13388;SDS011;6764;53.250;10.410;2023-11-21T08:08:17;10.50;;;8.47;;
13388;SDS011;6764;53.250;10.410;2023-11-21T08:10:43;13.70;;;8.53;;
13388;SDS011;6764;53.250;10.410;2023-11-21T08:13:21;10.73;;;8.50;;
13388;SDS011;6764;53.250;10.410;2023-11-21T08:15:50;11.17;;;7.93;;
13388;SDS011;6764;53.250;10.410;2023-11-21T08:18:18;10.13;;;8.80;;
13388;SDS011;6764;53.250;10.410;2023-11-21T08:20:44;10.87;;;8.73;;
13388;SDS011;6764;53.250;10.410;2023-11-21T08:23:12;11.47;;;8.87;;
13388;SDS011;6764;53.250;10.410;2023-11-21T08:25:40;9.33;;;8.33;;
13388;SDS011;6764;53.250;10.410;2023-11-21T08:28:07;9.53;;;8.53;;
13388;SDS011;6764;53.250;10.410;2023-11-21T08:30:32;12.57;;;8.70;;
13388;SDS011;6764;53.250;10.410;2023-11-21T08:32:59;9.13;;;8.23;;
13388;SDS011;6764;53.250;10.410;2023-11-21T08:35:25;8.90;;;8.00;;
13388;SDS011;6764;53.250;10.410;2023-11-21T08:37:51;10.17;;;8.27;;
13388;SDS011;6764;53.250;10.410;2023-11-21T08:40:18;8.97;;;8.07;;
13388;SDS011;6764;53.250;10.410;2023-11-21T08:42:45;11.67;;;7.73;;
13388;SDS011;6764;53.250;10.410;2023-11-21T08:45:11;9.23;;;8.23;;
13388;SDS011;6764;53.250;10.410;2023-11-21T08:47:37;18.87;;;8.60;;
13388;SDS011;6764;53.250;10.410;2023-11-21T08:50:04;11.13;;;7.53;;
13388;SDS011;6764;53.250;10.410;2023-11-21T08:52:33;10.03;;;7.93;;
13388;SDS011;6764;53.250;10.410;2023-11-21T08:54:59;8.47;;;7.43;;
13388;SDS011;6764;53.250;10.410;2023-11-21T08:57:27;8.80;;;7.87;;
13388;SDS011;6764;53.250;10.410;2023-11-21T08:59:53;8.43;;;7.27;;
13388;SDS011;6764;53.250;10.410;2023-11-21T09:02:25;10.80;;;7.83;;
13388;SDS011;6764;53.250;10.410;2023-11-21T09:04:51;12.60;;;10.43;;
13388;SDS011;6764;53.250;10.410;2023-11-21T09:07:17;9.83;;;8.00;;
13388;SDS011;6764;53.250;10.410;2023-11-21T09:09:46;8.00;;;7.20;;
13388;SDS011;6764;53.250;10.410;2023-11-21T09:12:13;8.47;;;7.07;;
13388;SDS011;6764;53.250;10.410;2023-11-21T09:14:38;7.50;;;6.70;;
13388;SDS011;6764;53.250;10.410;2023-11-21T09:17:07;7.90;;;6.97;;
13388;SDS011;6764;53.250;10.410;2023-11-21T09:19:38;7.97;;;7.03;;
13388;SDS011;6764;53.250;10.410;2023-11-21T09:22:04;8.67;;;7.17;;
13388;SDS011;6764;53.250;10.410;2023-11-21T09:24:30;8.03;;;7.20;;
13388;SDS011;6764;53.250;10.410;2023-11-21T09:26:57;9.33;;;6.03;;
13388;SDS011;6764;53.250;10.410;2023-11-21T09:29:23;9.20;;;6.90;;
13388;SDS011;6764;53.250;10.410;2023-11-21T09:31:48;8.03;;;6.63;;
13388;SDS011;6764;53.250;10.410;2023-11-21T09:34:16;7.63;;;6.83;;
13388;SDS011;6764;53.250;10.410;2023-11-21T09:36:44;6.97;;;6.17;;
13388;SDS011;6764;53.250;10.410;2023-11-21T09:39:10;7.53;;;6.60;;
13388;SDS011;6764;53.250;10.410;2023-11-21T09:41:52;6.77;;;6.07;;
13388;SDS011;6764;53.250;10.410;2023-11-21T09:44:32;7.90;;;6.43;;
13388;SDS011;6764;53.250;10.410;2023-11-21T09:47:02;9.20;;;6.83;;
13388;SDS011;6764;53.250;10.410;2023-11-21T09:49:28;8.57;;;6.60;;
13388;SDS011;6764;53.250;10.410;2023-11-21T09:52:00;10.40;;;6.43;;
13388;SDS011;6764;53.250;10.410;2023-11-21T09:54:28;7.13;;;6.07;;
13388;SDS011;6764;53.250;10.410;2023-11-21T09:56:56;6.80;;;6.20;;
13388;SDS011;6764;53.250;10.410;2023-11-21T09:59:24;8.17;;;5.83;;
13388;SDS011;6764;53.250;10.410;2023-11-21T10:01:54;6.17;;;5.57;;
13388;SDS011;6764;53.250;10.410;2023-11-21T10:04:23;7.57;;;5.70;;
13388;SDS011;6764;53.250;10.410;2023-11-21T10:06:49;7.17;;;5.83;;
13388;SDS011;6764;53.250;10.410;2023-11-21T10:09:16;8.57;;;5.70;;
13388;SDS011;6764;53.250;10.410;2023-11-21T10:11:45;6.67;;;5.50;;
13388;SDS011;6764;53.250;10.410;2023-11-21T10:14:11;6.63;;;5.47;;
13388;SDS011;6764;53.250;10.410;2023-11-21T10:16:40;6.10;;;5.60;;
13388;SDS011;6764;53.250;10.410;2023-11-21T10:19:09;6.30;;;5.63;;
13388;SDS011;6764;53.250;10.410;2023-11-21T10:21:35;6.83;;;5.90;;
13388;SDS011;6764;53.250;10.410;2023-11-21T10:24:03;7.13;;;5.30;;
13388;SDS011;6764;53.250;10.410;2023-11-21T10:26:29;5.73;;;4.73;;
13388;SDS011;6764;53.250;10.410;2023-11-21T10:31:23;5.40;;;4.80;;
13388;SDS011;6764;53.250;10.410;2023-11-21T10:33:51;7.43;;;5.33;;
13388;SDS011;6764;53.250;10.410;2023-11-21T10:36:27;7.20;;;5.83;;
13388;SDS011;6764;53.250;10.410;2023-11-21T10:38:54;6.27;;;5.57;;
13388;SDS011;6764;53.250;10.410;2023-11-21T10:41:20;7.17;;;5.50;;
13388;SDS011;6764;53.250;10.410;2023-11-21T10:43:46;5.30;;;4.80;;
13388;SDS011;6764;53.250;10.410;2023-11-21T10:46:12;5.00;;;4.50;;
13388;SDS011;6764;53.250;10.410;2023-11-21T10:48:40;4.90;;;4.20;;
13388;SDS011;6764;53.250;10.410;2023-11-21T10:51:09;7.83;;;5.20;;
13388;SDS011;6764;53.250;10.410;2023-11-21T10:53:41;7.23;;;4.63;;
13388;SDS011;6764;53.250;10.410;2023-11-21T10:56:08;5.80;;;4.37;;
13388;SDS011;6764;53.250;10.410;2023-11-21T10:58:42;4.83;;;4.27;;
13388;SDS011;6764;53.250;10.410;2023-11-21T11:01:08;5.63;;;4.70;;
13388;SDS011;6764;53.250;10.410;2023-11-21T11:03:37;5.10;;;4.60;;
13388;SDS011;6764;53.250;10.410;2023-11-21T11:06:05;5.13;;;4.20;;
13388;SDS011;6764;53.250;10.410;2023-11-21T11:08:36;4.93;;;4.43;;
13388;SDS011;6764;53.250;10.410;2023-11-21T11:11:02;6.17;;;4.40;;
13388;SDS011;6764;53.250;10.410;2023-11-21T11:13:30;7.70;;;4.90;;
13388;SDS011;6764;53.250;10.410;2023-11-21T11:15:59;6.43;;;4.50;;
13388;SDS011;6764;53.250;10.410;2023-11-21T11:18:32;4.87;;;4.20;;
13388;SDS011;6764;53.250;10.410;2023-11-21T11:32:09;7.30;;;5.00;;
13388;SDS011;6764;53.250;10.410;2023-11-21T11:37:20;6.10;;;4.57;;
13388;SDS011;6764;53.250;10.410;2023-11-21T11:39:48;8.17;;;5.47;;
13388;SDS011;6764;53.250;10.410;2023-11-21T11:42:15;6.83;;;5.23;;
13388;SDS011;6764;53.250;10.410;2023-11-21T11:52:39;5.73;;;4.00;;
13388;SDS011;6764;53.250;10.410;2023-11-21T11:55:11;4.83;;;4.03;;
13388;SDS011;6764;53.250;10.410;2023-11-21T11:57:44;4.80;;;4.27;;
13388;SDS011;6764;53.250;10.410;2023-11-21T12:00:17;4.47;;;3.83;;
13388;SDS011;6764;53.250;10.410;2023-11-21T12:02:53;4.20;;;3.80;;
13388;SDS011;6764;53.250;10.410;2023-11-21T12:05:33;4.30;;;3.90;;
13388;SDS011;6764;53.250;10.410;2023-11-21T12:08:08;11.03;;;4.33;;
13388;SDS011;6764;53.250;10.410;2023-11-21T12:10:37;5.53;;;4.40;;
13388;SDS011;6764;53.250;10.410;2023-11-21T12:15:38;5.13;;;4.00;;
13388;SDS011;6764;53.250;10.410;2023-11-21T12:18:05;9.10;;;4.07;;
13388;SDS011;6764;53.250;10.410;2023-11-21T12:20:31;4.37;;;3.73;;
13388;SDS011;6764;53.250;10.410;2023-11-21T12:23:03;4.83;;;3.90;;
13388;SDS011;6764;53.250;10.410;2023-11-21T12:25:30;4.30;;;3.90;;
13388;SDS011;6764;53.250;10.410;2023-11-21T12:28:01;8.17;;;6.47;;
13388;SDS011;6764;53.250;10.410;2023-11-21T12:30:31;9.83;;;4.30;;
13388;SDS011;6764;53.250;10.410;2023-11-21T12:33:00;5.70;;;4.20;;
13388;SDS011;6764;53.250;10.410;2023-11-21T12:35:29;4.80;;;4.30;;
13388;SDS011;6764;53.250;10.410;2023-11-21T12:37:58;7.63;;;4.30;;
13388;SDS011;6764;53.250;10.410;2023-11-21T12:40:27;4.67;;;4.00;;
13388;SDS011;6764;53.250;10.410;2023-11-21T12:42:54;4.03;;;3.63;;
13388;SDS011;6764;53.250;10.410;2023-11-21T12:45:22;4.33;;;3.90;;
13388;SDS011;6764;53.250;10.410;2023-11-21T12:47:59;4.47;;;4.07;;
13388;SDS011;6764;53.250;10.410;2023-11-21T12:50:29;6.53;;;3.90;;
13388;SDS011;6764;53.250;10.410;2023-11-21T12:53:00;7.70;;;4.13;;
13388;SDS011;6764;53.250;10.410;2023-11-21T12:55:30;4.83;;;4.10;;
13388;SDS011;6764;53.250;10.410;2023-11-21T12:58:02;4.10;;;3.57;;
13388;SDS011;6764;53.250;10.410;2023-11-21T13:00:38;6.27;;;4.00;;
13388;SDS011;6764;53.250;10.410;2023-11-21T13:03:08;4.90;;;4.03;;
13388;SDS011;6764;53.250;10.410;2023-11-21T13:05:38;5.67;;;4.43;;
13388;SDS011;6764;53.250;10.410;2023-11-21T13:08:10;5.53;;;5.03;;
13388;SDS011;6764;53.250;10.410;2023-11-21T13:10:41;5.50;;;4.23;;
13388;SDS011;6764;53.250;10.410;2023-11-21T13:13:11;4.17;;;3.70;;
13388;SDS011;6764;53.250;10.410;2023-11-21T13:15:48;7.77;;;4.03;;
13388;SDS011;6764;53.250;10.410;2023-11-21T13:18:19;4.43;;;4.03;;
13388;SDS011;6764;53.250;10.410;2023-11-21T13:20:46;6.03;;;4.20;;
13388;SDS011;6764;53.250;10.410;2023-11-21T13:23:12;5.87;;;4.33;;
13388;SDS011;6764;53.250;10.410;2023-11-21T13:25:39;5.43;;;4.67;;
13388;SDS011;6764;53.250;10.410;2023-11-21T13:28:07;4.67;;;4.00;;
13388;SDS011;6764;53.250;10.410;2023-11-21T13:30:34;6.33;;;4.47;;
13388;SDS011;6764;53.250;10.410;2023-11-21T13:33:01;10.07;;;6.10;;
13388;SDS011;6764;53.250;10.410;2023-11-21T13:35:33;6.17;;;4.33;;
13388;SDS011;6764;53.250;10.410;2023-11-21T13:38:07;7.00;;;4.23;;
13388;SDS011;6764;53.250;10.410;2023-11-21T13:40:35;6.37;;;4.60;;
13388;SDS011;6764;53.250;10.410;2023-11-21T13:43:08;5.70;;;4.60;;
13388;SDS011;6764;53.250;10.410;2023-11-21T13:45:37;6.23;;;4.83;;
13388;SDS011;6764;53.250;10.410;2023-11-21T13:48:07;5.27;;;4.40;;
13388;SDS011;6764;53.250;10.410;2023-11-21T13:50:41;10.00;;;5.07;;
13388;SDS011;6764;53.250;10.410;2023-11-21T13:53:23;6.70;;;5.23;;
13388;SDS011;6764;53.250;10.410;2023-11-21T13:55:49;9.10;;;5.17;;
13388;SDS011;6764;53.250;10.410;2023-11-21T13:58:16;5.53;;;5.00;;
13388;SDS011;6764;53.250;10.410;2023-11-21T14:00:48;5.67;;;4.83;;
13388;SDS011;6764;53.250;10.410;2023-11-21T14:03:21;5.33;;;4.23;;
13388;SDS011;6764;53.250;10.410;2023-11-21T14:05:57;5.93;;;5.10;;
13388;SDS011;6764;53.250;10.410;2023-11-21T14:08:25;5.07;;;4.17;;
13388;SDS011;6764;53.250;10.410;2023-11-21T14:10:53;5.00;;;4.50;;
13388;SDS011;6764;53.250;10.410;2023-11-21T14:13:23;5.97;;;4.50;;
13388;SDS011;6764;53.250;10.410;2023-11-21T14:15:49;5.67;;;4.63;;
13388;SDS011;6764;53.250;10.410;2023-11-21T14:18:26;5.47;;;4.50;;
13388;SDS011;6764;53.250;10.410;2023-11-21T14:21:15;5.20;;;4.13;;
13388;SDS011;6764;53.250;10.410;2023-11-21T14:23:41;5.17;;;4.50;;
13388;SDS011;6764;53.250;10.410;2023-11-21T14:26:08;8.33;;;6.90;;
13388;SDS011;6764;53.250;10.410;2023-11-21T14:28:33;6.10;;;5.10;;
13388;SDS011;6764;53.250;10.410;2023-11-21T14:31:01;7.23;;;4.33;;
13388;SDS011;6764;53.250;10.410;2023-11-21T14:33:28;7.63;;;4.60;;
13388;SDS011;6764;53.250;10.410;2023-11-21T14:35:53;5.10;;;4.50;;
13388;SDS011;6764;53.250;10.410;2023-11-21T14:38:19;5.60;;;4.57;;
13388;SDS011;6764;53.250;10.410;2023-11-21T14:40:45;9.27;;;5.63;;
13388;SDS011;6764;53.250;10.410;2023-11-21T14:43:12;7.40;;;5.33;;
13388;SDS011;6764;53.250;10.410;2023-11-21T14:45:38;5.10;;;4.60;;
13388;SDS011;6764;53.250;10.410;2023-11-21T14:48:04;5.10;;;4.60;;
13388;SDS011;6764;53.250;10.410;2023-11-21T14:50:30;8.67;;;6.40;;
13388;SDS011;6764;53.250;10.410;2023-11-21T14:53:14;4.40;;;4.00;;
13388;SDS011;6764;53.250;10.410;2023-11-21T14:55:40;5.33;;;4.57;;
13388;SDS011;6764;53.250;10.410;2023-11-21T14:58:15;4.83;;;4.33;;
13388;SDS011;6764;53.250;10.410;2023-11-21T15:01:04;5.90;;;4.83;;
13388;SDS011;6764;53.250;10.410;2023-11-21T15:03:29;6.17;;;4.80;;
13388;SDS011;6764;53.250;10.410;2023-11-21T15:06:01;5.20;;;4.40;;
13388;SDS011;6764;53.250;10.410;2023-11-21T15:08:44;6.07;;;5.23;;
13388;SDS011;6764;53.250;10.410;2023-11-21T15:11:14;7.97;;;5.67;;
13388;SDS011;6764;53.250;10.410;2023-11-21T15:13:41;5.70;;;5.10;;